AXB1890 VABB-VOMM
Flight info
| Callsign | AXB1890 |
|---|---|
| Flight time | 1h 33m |
| Altitude | 31000 |
| Route | VEVAK2A EPKOS Q9 OPAMO OPAMO2F |
| Aircraft | B738/M-SDE2E3FGHIRWXY/LB1 |
Departure
| Time | 2026-04-22 10:15 |
|---|---|
| Airport | Chhatrapati Shivaji Maharaj International Airport (VABB) |
Arrival
| Time | 2026-04-22 11:48 |
|---|---|
| Airport | Chennai International Airport (VOMM) |
| Time | Latitude | Longitude | Altitude | Speed | Heading |
|---|---|---|---|---|---|
| 2026-04-22 09:14 | 19.09154 | 72.85360 | 32 ft | 0 kts | 360° |
| 2026-04-22 09:57 | 19.09144 | 72.85360 | 32 ft | 2 kts | 360° |
| 2026-04-22 09:58 | 19.09129 | 72.85360 | 31 ft | 2 kts | 8° |
| 2026-04-22 09:58 | 19.09115 | 72.85355 | 31 ft | 2 kts | 28° |
| 2026-04-22 09:58 | 19.09103 | 72.85345 | 31 ft | 2 kts | 46° |
| 2026-04-22 09:58 | 19.09094 | 72.85332 | 31 ft | 2 kts | 64° |
| 2026-04-22 09:59 | 19.09089 | 72.85318 | 30 ft | 2 kts | 82° |
| 2026-04-22 09:59 | 19.09089 | 72.85310 | 30 ft | 1 kts | 91° |
| 2026-04-22 09:59 | 19.09089 | 72.85306 | 30 ft | 0 kts | 89° |
| 2026-04-22 10:05 | 19.09089 | 72.85307 | 30 ft | 0 kts | 89° |
| 2026-04-22 10:05 | 19.09089 | 72.85331 | 31 ft | 5 kts | 89° |
| 2026-04-22 10:06 | 19.09078 | 72.85392 | 30 ft | 10 kts | 129° |
| 2026-04-22 10:06 | 19.09024 | 72.85418 | 29 ft | 8 kts | 110° |
| 2026-04-22 10:06 | 19.09024 | 72.85468 | 29 ft | 5 kts | 89° |
| 2026-04-22 10:06 | 19.09025 | 72.85512 | 29 ft | 7 kts | 89° |
| 2026-04-22 10:07 | 19.09026 | 72.85574 | 29 ft | 10 kts | 89° |
| 2026-04-22 10:07 | 19.09026 | 72.85667 | 30 ft | 14 kts | 89° |
| 2026-04-22 10:07 | 19.09028 | 72.85789 | 30 ft | 18 kts | 89° |
| 2026-04-22 10:07 | 19.09031 | 72.85937 | 32 ft | 21 kts | 89° |
| 2026-04-22 10:08 | 19.09032 | 72.86113 | 33 ft | 26 kts | 89° |
| 2026-04-22 10:08 | 19.09035 | 72.86265 | 33 ft | 13 kts | 89° |
| 2026-04-22 10:08 | 19.09036 | 72.86361 | 33 ft | 12 kts | 89° |
| 2026-04-22 10:08 | 19.09037 | 72.86445 | 33 ft | 10 kts | 89° |
| 2026-04-22 10:09 | 19.09039 | 72.86524 | 32 ft | 12 kts | 89° |
| 2026-04-22 10:09 | 19.09040 | 72.86628 | 32 ft | 15 kts | 89° |
| 2026-04-22 10:09 | 19.09042 | 72.86758 | 32 ft | 19 kts | 89° |
| 2026-04-22 10:09 | 19.09045 | 72.86913 | 31 ft | 23 kts | 88° |
| 2026-04-22 10:10 | 19.09049 | 72.87099 | 30 ft | 26 kts | 89° |
| 2026-04-22 10:10 | 19.09053 | 72.87304 | 30 ft | 26 kts | 89° |
| 2026-04-22 10:10 | 19.09054 | 72.87485 | 30 ft | 23 kts | 89° |
| 2026-04-22 10:10 | 19.09055 | 72.87644 | 32 ft | 20 kts | 89° |
| 2026-04-22 10:11 | 19.09057 | 72.87787 | 32 ft | 18 kts | 89° |
| 2026-04-22 10:11 | 19.09059 | 72.87910 | 36 ft | 14 kts | 89° |
| 2026-04-22 10:11 | 19.09061 | 72.87996 | 39 ft | 8 kts | 89° |
| 2026-04-22 10:11 | 19.09050 | 72.88045 | 40 ft | 6 kts | 140° |
| 2026-04-22 10:12 | 19.09018 | 72.88051 | 40 ft | 1 kts | 180° |
| 2026-04-22 10:12 | 19.09012 | 72.88051 | 40 ft | 0 kts | 180° |
| 2026-04-22 10:12 | 19.08997 | 72.88051 | 40 ft | 4 kts | 180° |
| 2026-04-22 10:13 | 19.08942 | 72.88052 | 38 ft | 10 kts | 174° |
| 2026-04-22 10:13 | 19.08886 | 72.88039 | 37 ft | 9 kts | 263° |
| 2026-04-22 10:13 | 19.08887 | 72.87994 | 37 ft | 0 kts | 269° |
| 2026-04-22 10:14 | 19.08886 | 72.87991 | 37 ft | 0 kts | 269° |
| 2026-04-22 10:14 | 19.08885 | 72.87901 | 35 ft | 38 kts | 270° |
| 2026-04-22 10:14 | 19.08878 | 72.87347 | 27 ft | 109 kts | 269° |
| 2026-04-22 10:14 | 19.08864 | 72.86331 | 35 ft | 167 kts | 269° |
| 2026-04-22 10:15 | 19.08850 | 72.85024 | 501 ft | 177 kts | 269° |
| 2026-04-22 10:15 | 19.08838 | 72.83727 | 1086 ft | 186 kts | 269° |
| 2026-04-22 10:15 | 19.08812 | 72.82310 | 1516 ft | 200 kts | 269° |
| 2026-04-22 10:15 | 19.08779 | 72.80886 | 2189 ft | 196 kts | 269° |
| 2026-04-22 10:16 | 19.08750 | 72.79398 | 2552 ft | 209 kts | 269° |
| 2026-04-22 10:16 | 19.08726 | 72.77847 | 3080 ft | 213 kts | 269° |
| 2026-04-22 10:16 | 19.08714 | 72.76723 | 3525 ft | 213 kts | 269° |
| 2026-04-22 10:16 | 19.08681 | 72.75172 | 4140 ft | 213 kts | 268° |
| 2026-04-22 10:17 | 19.08341 | 72.73640 | 4613 ft | 223 kts | 249° |
| 2026-04-22 10:17 | 19.07459 | 72.72208 | 4854 ft | 238 kts | 224° |
| 2026-04-22 10:17 | 19.06010 | 72.71340 | 5423 ft | 244 kts | 195° |
| 2026-04-22 10:17 | 19.04327 | 72.71307 | 5970 ft | 249 kts | 166° |
| 2026-04-22 10:18 | 19.02693 | 72.71867 | 6636 ft | 249 kts | 158° |
| 2026-04-22 10:18 | 19.01114 | 72.72590 | 7276 ft | 252 kts | 156° |
| 2026-04-22 10:18 | 18.99441 | 72.73160 | 7889 ft | 254 kts | 167° |
| 2026-04-22 10:18 | 18.97691 | 72.73405 | 8468 ft | 261 kts | 175° |
| 2026-04-22 10:19 | 18.95827 | 72.73511 | 8857 ft | 277 kts | 176° |
| 2026-04-22 10:19 | 18.93818 | 72.73605 | 9051 ft | 296 kts | 176° |
| 2026-04-22 10:19 | 18.91745 | 72.73704 | 9257 ft | 301 kts | 176° |
| 2026-04-22 10:19 | 18.89674 | 72.73797 | 10071 ft | 300 kts | 176° |
| 2026-04-22 10:20 | 18.87616 | 72.73882 | 10900 ft | 301 kts | 177° |
| 2026-04-22 10:20 | 18.85466 | 72.73966 | 11426 ft | 312 kts | 177° |
| 2026-04-22 10:20 | 18.83322 | 72.74038 | 12095 ft | 317 kts | 177° |
| 2026-04-22 10:20 | 18.81076 | 72.74108 | 12767 ft | 324 kts | 177° |
| 2026-04-22 10:21 | 18.78818 | 72.74191 | 13306 ft | 334 kts | 177° |
| 2026-04-22 10:21 | 18.76480 | 72.74380 | 13836 ft | 343 kts | 169° |
| 2026-04-22 10:21 | 18.74175 | 72.75115 | 14326 ft | 353 kts | 158° |
| 2026-04-22 10:21 | 18.71885 | 72.76109 | 14933 ft | 361 kts | 157° |
| 2026-04-22 10:22 | 18.69537 | 72.77108 | 15564 ft | 367 kts | 158° |
| 2026-04-22 10:22 | 18.67144 | 72.78097 | 16132 ft | 375 kts | 159° |
| 2026-04-22 10:22 | 18.64700 | 72.79031 | 16754 ft | 381 kts | 160° |
| 2026-04-22 10:22 | 18.62154 | 72.79942 | 17355 ft | 387 kts | 161° |
| 2026-04-22 10:23 | 18.59554 | 72.80777 | 17787 ft | 398 kts | 163° |
| 2026-04-22 10:23 | 18.56888 | 72.81621 | 18230 ft | 407 kts | 162° |
| 2026-04-22 10:23 | 18.54176 | 72.82523 | 18800 ft | 412 kts | 161° |
| 2026-04-22 10:23 | 18.51447 | 72.83453 | 19397 ft | 416 kts | 161° |
| 2026-04-22 10:24 | 18.48697 | 72.84398 | 19994 ft | 420 kts | 161° |
| 2026-04-22 10:24 | 18.45946 | 72.85344 | 20581 ft | 423 kts | 161° |
| 2026-04-22 10:24 | 18.43163 | 72.86302 | 21154 ft | 426 kts | 161° |
| 2026-04-22 10:24 | 18.40342 | 72.87275 | 21718 ft | 430 kts | 161° |
| 2026-04-22 10:25 | 18.37493 | 72.88258 | 22271 ft | 433 kts | 161° |
| 2026-04-22 10:25 | 18.34641 | 72.89244 | 22805 ft | 436 kts | 161° |
| 2026-04-22 10:25 | 18.31754 | 72.90241 | 23326 ft | 439 kts | 161° |
| 2026-04-22 10:25 | 18.28853 | 72.91241 | 23807 ft | 443 kts | 162° |
| 2026-04-22 10:26 | 18.25929 | 72.92247 | 24280 ft | 446 kts | 162° |
| 2026-04-22 10:26 | 18.22977 | 72.93268 | 24765 ft | 449 kts | 162° |
| 2026-04-22 10:26 | 18.19999 | 72.94299 | 25240 ft | 452 kts | 162° |
| 2026-04-22 10:26 | 18.17026 | 72.95327 | 25697 ft | 455 kts | 162° |
| 2026-04-22 10:27 | 18.14028 | 72.96370 | 26143 ft | 458 kts | 161° |
| 2026-04-22 10:27 | 18.11050 | 72.97624 | 26575 ft | 461 kts | 155° |
| 2026-04-22 10:27 | 18.08242 | 72.99202 | 26986 ft | 464 kts | 148° |
| 2026-04-22 10:27 | 18.05629 | 73.01221 | 27369 ft | 467 kts | 140° |
| 2026-04-22 10:28 | 18.03238 | 73.03499 | 28027 ft | 463 kts | 137° |
| 2026-04-22 10:28 | 18.00889 | 73.05769 | 28609 ft | 461 kts | 138° |
| 2026-04-22 10:28 | 17.98524 | 73.08002 | 29112 ft | 460 kts | 139° |
| 2026-04-22 10:28 | 17.96136 | 73.10249 | 29624 ft | 459 kts | 139° |
| 2026-04-22 10:29 | 17.93767 | 73.12491 | 30091 ft | 458 kts | 138° |
| 2026-04-22 10:29 | 17.91437 | 73.14706 | 30535 ft | 457 kts | 138° |
| 2026-04-22 10:29 | 17.89084 | 73.16943 | 30813 ft | 459 kts | 138° |
| 2026-04-22 10:29 | 17.86695 | 73.19213 | 30801 ft | 460 kts | 138° |
| 2026-04-22 10:30 | 17.82006 | 73.23673 | 30804 ft | 455 kts | 138° |
| 2026-04-22 10:30 | 17.77302 | 73.28146 | 30804 ft | 455 kts | 138° |
| 2026-04-22 10:31 | 17.72590 | 73.32627 | 30804 ft | 456 kts | 138° |
| 2026-04-22 10:31 | 17.67889 | 73.37094 | 30804 ft | 456 kts | 138° |
| 2026-04-22 10:32 | 17.63158 | 73.41588 | 30804 ft | 456 kts | 138° |
| 2026-04-22 10:32 | 17.58430 | 73.46077 | 30804 ft | 456 kts | 138° |
| 2026-04-22 10:33 | 17.53730 | 73.50535 | 30804 ft | 456 kts | 138° |
| 2026-04-22 10:33 | 17.49026 | 73.54993 | 30804 ft | 456 kts | 138° |
| 2026-04-22 10:34 | 17.44323 | 73.59449 | 30804 ft | 456 kts | 138° |
| 2026-04-22 10:34 | 17.39650 | 73.63872 | 30804 ft | 456 kts | 138° |
| 2026-04-22 10:35 | 17.34935 | 73.68332 | 30804 ft | 456 kts | 139° |
| 2026-04-22 10:35 | 17.30252 | 73.72757 | 30804 ft | 456 kts | 139° |
| 2026-04-22 10:36 | 17.25553 | 73.77195 | 30804 ft | 456 kts | 139° |
| 2026-04-22 10:36 | 17.20850 | 73.81634 | 30804 ft | 456 kts | 139° |
| 2026-04-22 10:37 | 17.13807 | 73.88276 | 30804 ft | 456 kts | 139° |
| 2026-04-22 10:38 | 17.09114 | 73.92697 | 30804 ft | 456 kts | 139° |
| 2026-04-22 10:38 | 17.04405 | 73.97130 | 30804 ft | 456 kts | 139° |
| 2026-04-22 10:39 | 16.99687 | 74.01569 | 30804 ft | 456 kts | 139° |
| 2026-04-22 10:39 | 16.94986 | 74.05988 | 30804 ft | 456 kts | 139° |
| 2026-04-22 10:40 | 16.90301 | 74.10421 | 30803 ft | 456 kts | 137° |
| 2026-04-22 10:40 | 16.86137 | 74.15398 | 30804 ft | 457 kts | 129° |
| 2026-04-22 10:41 | 16.82190 | 74.20586 | 30804 ft | 457 kts | 129° |
| 2026-04-22 10:41 | 16.78222 | 74.25752 | 30804 ft | 457 kts | 129° |
| 2026-04-22 10:42 | 16.74272 | 74.30938 | 30804 ft | 457 kts | 129° |
| 2026-04-22 10:42 | 16.70340 | 74.36105 | 30804 ft | 457 kts | 129° |
| 2026-04-22 10:43 | 16.66398 | 74.41290 | 30804 ft | 457 kts | 129° |
| 2026-04-22 10:43 | 16.62477 | 74.46448 | 30804 ft | 457 kts | 129° |
| 2026-04-22 10:44 | 16.58548 | 74.51616 | 30804 ft | 457 kts | 129° |
| 2026-04-22 10:44 | 16.54584 | 74.56827 | 30804 ft | 457 kts | 129° |
| 2026-04-22 10:45 | 16.50656 | 74.61986 | 30804 ft | 457 kts | 129° |
| 2026-04-22 10:45 | 16.46710 | 74.67167 | 30804 ft | 457 kts | 129° |
| 2026-04-22 10:46 | 16.42764 | 74.72343 | 30804 ft | 457 kts | 129° |
| 2026-04-22 10:46 | 16.38838 | 74.77489 | 30804 ft | 457 kts | 129° |
| 2026-04-22 10:47 | 16.34888 | 74.82663 | 30804 ft | 457 kts | 129° |
| 2026-04-22 10:47 | 16.30928 | 74.87845 | 30804 ft | 457 kts | 129° |
| 2026-04-22 10:48 | 16.27002 | 74.92981 | 30804 ft | 457 kts | 129° |
| 2026-04-22 10:48 | 16.23052 | 74.98144 | 30804 ft | 457 kts | 129° |
| 2026-04-22 10:49 | 16.19086 | 75.03324 | 30804 ft | 457 kts | 129° |
| 2026-04-22 10:49 | 16.15123 | 75.08496 | 30804 ft | 457 kts | 129° |
| 2026-04-22 10:50 | 16.11163 | 75.13661 | 30804 ft | 457 kts | 129° |
| 2026-04-22 10:50 | 16.07222 | 75.18797 | 30804 ft | 457 kts | 129° |
| 2026-04-22 10:51 | 16.03246 | 75.23975 | 30804 ft | 456 kts | 129° |
| 2026-04-22 10:51 | 15.99296 | 75.29116 | 30804 ft | 456 kts | 129° |
| 2026-04-22 10:52 | 15.95334 | 75.34269 | 30804 ft | 456 kts | 129° |
| 2026-04-22 10:52 | 15.91379 | 75.39409 | 30804 ft | 456 kts | 129° |
| 2026-04-22 10:53 | 15.87423 | 75.44547 | 30804 ft | 456 kts | 129° |
| 2026-04-22 10:53 | 15.83446 | 75.49707 | 30804 ft | 456 kts | 129° |
| 2026-04-22 10:54 | 15.79495 | 75.54831 | 30804 ft | 456 kts | 129° |
| 2026-04-22 10:54 | 15.75532 | 75.59965 | 30804 ft | 456 kts | 129° |
| 2026-04-22 10:55 | 15.71582 | 75.65082 | 30804 ft | 456 kts | 129° |
| 2026-04-22 10:55 | 15.67627 | 75.70200 | 30804 ft | 456 kts | 129° |
| 2026-04-22 10:56 | 15.63662 | 75.75328 | 30804 ft | 456 kts | 129° |
| 2026-04-22 10:56 | 15.59686 | 75.80467 | 30804 ft | 456 kts | 129° |
| 2026-04-22 10:57 | 15.55712 | 75.85599 | 30804 ft | 456 kts | 129° |
| 2026-04-22 10:57 | 15.51739 | 75.90726 | 30804 ft | 456 kts | 129° |
| 2026-04-22 10:58 | 15.47782 | 75.95829 | 30804 ft | 456 kts | 129° |
| 2026-04-22 10:58 | 15.43799 | 76.00963 | 30804 ft | 456 kts | 129° |
| 2026-04-22 10:59 | 15.39841 | 76.06061 | 30804 ft | 456 kts | 129° |
| 2026-04-22 10:59 | 15.35862 | 76.11182 | 30804 ft | 456 kts | 129° |
| 2026-04-22 11:00 | 15.31886 | 76.16296 | 30804 ft | 456 kts | 129° |
| 2026-04-22 11:00 | 15.27911 | 76.21405 | 30804 ft | 456 kts | 129° |
| 2026-04-22 11:01 | 15.23939 | 76.26508 | 30804 ft | 456 kts | 129° |
| 2026-04-22 11:01 | 15.19936 | 76.31645 | 30804 ft | 456 kts | 129° |
| 2026-04-22 11:02 | 15.15951 | 76.36757 | 30804 ft | 456 kts | 129° |
| 2026-04-22 11:02 | 15.11981 | 76.41845 | 30804 ft | 456 kts | 129° |
| 2026-04-22 11:03 | 15.08070 | 76.46855 | 30803 ft | 437 kts | 129° |
| 2026-04-22 11:03 | 15.04247 | 76.51748 | 30804 ft | 443 kts | 129° |
| 2026-04-22 11:04 | 15.00322 | 76.56767 | 30803 ft | 457 kts | 129° |
| 2026-04-22 11:04 | 14.96303 | 76.61905 | 30804 ft | 458 kts | 129° |
| 2026-04-22 11:05 | 14.92303 | 76.67017 | 30804 ft | 456 kts | 130° |
| 2026-04-22 11:05 | 14.88317 | 76.72103 | 30804 ft | 456 kts | 130° |
| 2026-04-22 11:06 | 14.84348 | 76.77167 | 30804 ft | 456 kts | 130° |
| 2026-04-22 11:06 | 14.80336 | 76.82282 | 30804 ft | 456 kts | 130° |
| 2026-04-22 11:07 | 14.76351 | 76.87359 | 30804 ft | 456 kts | 130° |
| 2026-04-22 11:07 | 14.72360 | 76.92440 | 30804 ft | 456 kts | 130° |
| 2026-04-22 11:08 | 14.68359 | 76.97532 | 30804 ft | 456 kts | 130° |
| 2026-04-22 11:08 | 14.64354 | 77.02625 | 30804 ft | 456 kts | 130° |
| 2026-04-22 11:09 | 14.60515 | 77.07835 | 30803 ft | 457 kts | 124° |
| 2026-04-22 11:09 | 14.57704 | 77.13659 | 30805 ft | 458 kts | 111° |
| 2026-04-22 11:10 | 14.55476 | 77.19829 | 30804 ft | 458 kts | 111° |
| 2026-04-22 11:10 | 14.53198 | 77.25957 | 30804 ft | 458 kts | 111° |
| 2026-04-22 11:11 | 14.50943 | 77.32104 | 30804 ft | 458 kts | 111° |
| 2026-04-22 11:11 | 14.48687 | 77.38267 | 30804 ft | 458 kts | 111° |
| 2026-04-22 11:12 | 14.46446 | 77.44398 | 30804 ft | 458 kts | 111° |
| 2026-04-22 11:12 | 14.44199 | 77.50545 | 30804 ft | 458 kts | 111° |
| 2026-04-22 11:13 | 14.41938 | 77.56733 | 30804 ft | 458 kts | 111° |
| 2026-04-22 11:13 | 14.39684 | 77.62896 | 30804 ft | 458 kts | 111° |
| 2026-04-22 11:14 | 14.37438 | 77.69031 | 30804 ft | 458 kts | 111° |
| 2026-04-22 11:14 | 14.35201 | 77.75140 | 30804 ft | 458 kts | 111° |
| 2026-04-22 11:15 | 14.32952 | 77.81275 | 30804 ft | 458 kts | 111° |
| 2026-04-22 11:15 | 14.30699 | 77.87417 | 30804 ft | 458 kts | 111° |
| 2026-04-22 11:16 | 14.28461 | 77.93511 | 30804 ft | 458 kts | 111° |
| 2026-04-22 11:16 | 14.26204 | 77.99650 | 30804 ft | 458 kts | 111° |
| 2026-04-22 11:17 | 14.23949 | 78.05782 | 30804 ft | 458 kts | 111° |
| 2026-04-22 11:17 | 14.23044 | 78.08239 | 30804 ft | 458 kts | 111° |
| 2026-04-22 11:18 | 14.21223 | 78.13184 | 30804 ft | 458 kts | 111° |
| 2026-04-22 11:18 | 14.18962 | 78.19317 | 30804 ft | 458 kts | 111° |
| 2026-04-22 11:19 | 14.16715 | 78.25410 | 30804 ft | 458 kts | 111° |
| 2026-04-22 11:19 | 14.14446 | 78.31554 | 30804 ft | 458 kts | 111° |
| 2026-04-22 11:20 | 14.12191 | 78.37658 | 30804 ft | 458 kts | 111° |
| 2026-04-22 11:20 | 14.09923 | 78.43789 | 30804 ft | 458 kts | 111° |
| 2026-04-22 11:21 | 14.07641 | 78.49952 | 30804 ft | 458 kts | 111° |
| 2026-04-22 11:21 | 14.05382 | 78.56049 | 30804 ft | 458 kts | 111° |
| 2026-04-22 11:22 | 14.02756 | 78.61995 | 30804 ft | 456 kts | 120° |
| 2026-04-22 11:22 | 13.99516 | 78.67600 | 30804 ft | 456 kts | 121° |
| 2026-04-22 11:23 | 13.96297 | 78.73232 | 30804 ft | 456 kts | 121° |
| 2026-04-22 11:23 | 13.93061 | 78.78821 | 30803 ft | 454 kts | 122° |
| 2026-04-22 11:24 | 13.89800 | 78.84426 | 30804 ft | 457 kts | 122° |
| 2026-04-22 11:24 | 13.86539 | 78.90015 | 30804 ft | 457 kts | 122° |
| 2026-04-22 11:25 | 13.83263 | 78.95619 | 30804 ft | 457 kts | 122° |
| 2026-04-22 11:25 | 13.80015 | 79.01166 | 30804 ft | 456 kts | 122° |
| 2026-04-22 11:26 | 13.76731 | 79.06768 | 30804 ft | 456 kts | 122° |
| 2026-04-22 11:26 | 13.73446 | 79.12367 | 30804 ft | 456 kts | 122° |
| 2026-04-22 11:27 | 13.70160 | 79.17964 | 30804 ft | 456 kts | 122° |
| 2026-04-22 11:27 | 13.68526 | 79.20745 | 30613 ft | 455 kts | 122° |
| 2026-04-22 11:27 | 13.66884 | 79.23539 | 29780 ft | 458 kts | 122° |
| 2026-04-22 11:27 | 13.65229 | 79.26354 | 28869 ft | 463 kts | 122° |
| 2026-04-22 11:28 | 13.63571 | 79.29173 | 28030 ft | 464 kts | 122° |
| 2026-04-22 11:28 | 13.61908 | 79.31999 | 27368 ft | 461 kts | 122° |
| 2026-04-22 11:28 | 13.60272 | 79.34780 | 26675 ft | 460 kts | 121° |
| 2026-04-22 11:28 | 13.58609 | 79.37604 | 25965 ft | 458 kts | 121° |
| 2026-04-22 11:29 | 13.56966 | 79.40395 | 25255 ft | 457 kts | 121° |
| 2026-04-22 11:29 | 13.55355 | 79.43129 | 24552 ft | 443 kts | 121° |
| 2026-04-22 11:29 | 13.53794 | 79.45779 | 23877 ft | 430 kts | 121° |
| 2026-04-22 11:29 | 13.52261 | 79.48379 | 23203 ft | 418 kts | 121° |
| 2026-04-22 11:30 | 13.50786 | 79.50882 | 22562 ft | 411 kts | 121° |
| 2026-04-22 11:30 | 13.49293 | 79.53413 | 21893 ft | 412 kts | 121° |
| 2026-04-22 11:30 | 13.47824 | 79.55902 | 21234 ft | 412 kts | 121° |
| 2026-04-22 11:30 | 13.46344 | 79.58410 | 20741 ft | 407 kts | 121° |
| 2026-04-22 11:31 | 13.44896 | 79.60862 | 20429 ft | 397 kts | 121° |
| 2026-04-22 11:31 | 13.43468 | 79.63226 | 20220 ft | 386 kts | 123° |
| 2026-04-22 11:31 | 13.41850 | 79.65434 | 19795 ft | 382 kts | 130° |
| 2026-04-22 11:31 | 13.40066 | 79.67437 | 19210 ft | 382 kts | 133° |
| 2026-04-22 11:32 | 13.38271 | 79.69411 | 18704 ft | 379 kts | 132° |
| 2026-04-22 11:32 | 13.36513 | 79.71384 | 18284 ft | 375 kts | 132° |
| 2026-04-22 11:32 | 13.34763 | 79.73340 | 17812 ft | 372 kts | 133° |
| 2026-04-22 11:32 | 13.33008 | 79.75281 | 17325 ft | 370 kts | 133° |
| 2026-04-22 11:33 | 13.31261 | 79.77206 | 16839 ft | 368 kts | 133° |
| 2026-04-22 11:33 | 13.29543 | 79.79096 | 16354 ft | 361 kts | 133° |
| 2026-04-22 11:33 | 13.27838 | 79.80971 | 15877 ft | 351 kts | 133° |
| 2026-04-22 11:33 | 13.26205 | 79.82763 | 15422 ft | 339 kts | 133° |
| 2026-04-22 11:34 | 13.24643 | 79.84477 | 14988 ft | 326 kts | 133° |
| 2026-04-22 11:34 | 13.23130 | 79.86137 | 14568 ft | 314 kts | 133° |
| 2026-04-22 11:34 | 13.21662 | 79.87746 | 14161 ft | 303 kts | 133° |
| 2026-04-22 11:34 | 13.20197 | 79.89352 | 13762 ft | 311 kts | 133° |
| 2026-04-22 11:35 | 13.18733 | 79.90956 | 13347 ft | 311 kts | 133° |
| 2026-04-22 11:35 | 13.17261 | 79.92569 | 12936 ft | 310 kts | 133° |
| 2026-04-22 11:35 | 13.15777 | 79.94194 | 12521 ft | 309 kts | 133° |
| 2026-04-22 11:35 | 13.14304 | 79.95806 | 12109 ft | 309 kts | 133° |
| 2026-04-22 11:36 | 13.12842 | 79.97407 | 11699 ft | 308 kts | 133° |
| 2026-04-22 11:36 | 13.11400 | 79.98985 | 11294 ft | 307 kts | 133° |
| 2026-04-22 11:36 | 13.09927 | 80.00597 | 10881 ft | 306 kts | 133° |
| 2026-04-22 11:36 | 13.08493 | 80.02166 | 10476 ft | 305 kts | 133° |
| 2026-04-22 11:37 | 13.07089 | 80.03819 | 10064 ft | 304 kts | 123° |
| 2026-04-22 11:37 | 13.06328 | 80.05769 | 9788 ft | 295 kts | 96° |
| 2026-04-22 11:37 | 13.06482 | 80.07832 | 9526 ft | 289 kts | 75° |
| 2026-04-22 11:37 | 13.07145 | 80.09769 | 9122 ft | 288 kts | 68° |
| 2026-04-22 11:38 | 13.07848 | 80.11686 | 8737 ft | 288 kts | 69° |
| 2026-04-22 11:38 | 13.08495 | 80.13500 | 8375 ft | 287 kts | 69° |
| 2026-04-22 11:38 | 13.09767 | 80.16991 | 7679 ft | 286 kts | 69° |
| 2026-04-22 11:39 | 13.10462 | 80.18893 | 7297 ft | 285 kts | 69° |
| 2026-04-22 11:39 | 13.11153 | 80.20782 | 6917 ft | 285 kts | 69° |
| 2026-04-22 11:39 | 13.11854 | 80.22697 | 6533 ft | 284 kts | 69° |
| 2026-04-22 11:39 | 13.12549 | 80.24593 | 6148 ft | 280 kts | 69° |
| 2026-04-22 11:40 | 13.13223 | 80.26429 | 5771 ft | 272 kts | 68° |
| 2026-04-22 11:40 | 13.13902 | 80.28185 | 5414 ft | 265 kts | 68° |
| 2026-04-22 11:40 | 13.14590 | 80.29948 | 4945 ft | 261 kts | 68° |
| 2026-04-22 11:40 | 13.15236 | 80.31611 | 4763 ft | 244 kts | 68° |
| 2026-04-22 11:41 | 13.15838 | 80.33178 | 4692 ft | 228 kts | 71° |
| 2026-04-22 11:41 | 13.16011 | 80.34723 | 4604 ft | 212 kts | 100° |
| 2026-04-22 11:41 | 13.15447 | 80.36052 | 4429 ft | 199 kts | 126° |
| 2026-04-22 11:41 | 13.14446 | 80.36979 | 4117 ft | 193 kts | 152° |
| 2026-04-22 11:42 | 13.13177 | 80.37347 | 3771 ft | 190 kts | 175° |
| 2026-04-22 11:42 | 13.11868 | 80.37460 | 3422 ft | 188 kts | 175° |
| 2026-04-22 11:42 | 13.10588 | 80.37582 | 3074 ft | 186 kts | 175° |
| 2026-04-22 11:42 | 13.09302 | 80.37701 | 2723 ft | 185 kts | 175° |
| 2026-04-22 11:43 | 13.08042 | 80.37768 | 2473 ft | 178 kts | 186° |
| 2026-04-22 11:43 | 13.06919 | 80.37273 | 2384 ft | 182 kts | 224° |
| 2026-04-22 11:43 | 13.06299 | 80.36149 | 2296 ft | 183 kts | 251° |
| 2026-04-22 11:43 | 13.05823 | 80.34938 | 2196 ft | 184 kts | 246° |
| 2026-04-22 11:44 | 13.05339 | 80.33727 | 2101 ft | 182 kts | 249° |
| 2026-04-22 11:44 | 13.04882 | 80.32526 | 1999 ft | 181 kts | 249° |
| 2026-04-22 11:44 | 13.04425 | 80.31309 | 1897 ft | 182 kts | 249° |
| 2026-04-22 11:44 | 13.03969 | 80.30092 | 1802 ft | 181 kts | 249° |
| 2026-04-22 11:45 | 13.03521 | 80.28897 | 1794 ft | 180 kts | 249° |
| 2026-04-22 11:45 | 13.03068 | 80.27688 | 1792 ft | 181 kts | 249° |
| 2026-04-22 11:45 | 13.02618 | 80.26485 | 1735 ft | 183 kts | 249° |
| 2026-04-22 11:45 | 13.02160 | 80.25266 | 1477 ft | 181 kts | 249° |
| 2026-04-22 11:46 | 13.01720 | 80.24093 | 1255 ft | 170 kts | 249° |
| 2026-04-22 11:46 | 13.01310 | 80.23002 | 1019 ft | 159 kts | 249° |
| 2026-04-22 11:46 | 13.00916 | 80.21950 | 817 ft | 158 kts | 249° |
| 2026-04-22 11:46 | 13.00775 | 80.21574 | 733 ft | 157 kts | 249° |
| 2026-04-22 11:47 | 13.00388 | 80.20546 | 553 ft | 154 kts | 248° |
| 2026-04-22 11:47 | 13.00000 | 80.19520 | 362 ft | 153 kts | 249° |
| 2026-04-22 11:47 | 12.99623 | 80.18511 | 122 ft | 150 kts | 249° |
| 2026-04-22 11:47 | 12.99267 | 80.17562 | 45 ft | 125 kts | 249° |
| 2026-04-22 11:48 | 12.99028 | 80.16925 | 45 ft | 68 kts | 249° |
| 2026-04-22 11:48 | 12.98913 | 80.16621 | 45 ft | 30 kts | 249° |
| 2026-04-22 11:48 | 12.98853 | 80.16480 | 45 ft | 14 kts | 237° |
| 2026-04-22 11:48 | 12.98809 | 80.16417 | 44 ft | 14 kts | 229° |
| 2026-04-22 11:49 | 12.98730 | 80.16350 | 44 ft | 14 kts | 213° |
| 2026-04-22 11:49 | 12.98652 | 80.16293 | 44 ft | 12 kts | 214° |
| 2026-04-22 11:49 | 12.98574 | 80.16237 | 44 ft | 14 kts | 231° |
| 2026-04-22 11:49 | 12.98527 | 80.16141 | 45 ft | 12 kts | 227° |
| 2026-04-22 11:50 | 12.98464 | 80.16145 | 46 ft | 10 kts | 159° |
| 2026-04-22 11:50 | 12.98390 | 80.16174 | 47 ft | 10 kts | 147° |
| 2026-04-22 11:50 | 12.98398 | 80.16240 | 47 ft | 10 kts | 68° |
| 2026-04-22 11:50 | 12.98425 | 80.16311 | 47 ft | 11 kts | 70° |
| 2026-04-22 11:51 | 12.98453 | 80.16387 | 47 ft | 11 kts | 69° |
| 2026-04-22 11:51 | 12.98482 | 80.16464 | 48 ft | 11 kts | 69° |
| 2026-04-22 11:51 | 12.98509 | 80.16536 | 48 ft | 10 kts | 68° |
| 2026-04-22 11:51 | 12.98534 | 80.16605 | 48 ft | 8 kts | 82° |
| 2026-04-22 11:52 | 12.98522 | 80.16617 | 48 ft | 1 kts | 160° |
| 2026-04-22 11:52 | 12.98509 | 80.16621 | 48 ft | 3 kts | 159° |
| 2026-04-22 11:52 | 12.98487 | 80.16631 | 49 ft | 3 kts | 159° |
| 2026-04-22 11:52 | 12.98471 | 80.16637 | 49 ft | 0 kts | 160° |
| 2026-04-22 11:53 | 12.98469 | 80.16637 | 49 ft | 0 kts | 160° |
| 2026-04-22 11:53 | 12.98466 | 80.16638 | 49 ft | 0 kts | 160° |